Healy, Kansas
Current Conditions -  °F | °C
As of 9:54 PM on Saturday 25 Oct 2014 (Local Time) from KGCK Reporting Station
Clear Clear  
Wind Chill: 68°   Ceiling: Unl
Heat Index: 68°   Visibility: 10mi
Dew Point: 47°   Wind: 10mph
Humidity: 47%   Direction: 170°S
Pressure: 29.95"   Gusts: NA
Location:  38.6°N, 100.62°W
Report Text: KGCK 260254Z AUTO 17009KT 10SM CLR 20/08 A2995 RMK AO2 SLP121 T02000083 55005
Loading
Personal Weather Stations






























Interactive Weather Map
Tropical Storm Tracking
New forecast layout! Learn more

10-Day Weather Forecast

Advertisements
Track Severe Weather on mobile